Time;durP1;ratioP1;P1;durP2;ratioP2;P2;SDS_P1;SDS_P2;PMS_P1;PMS_P2;Temp;Humidity;BMP_temperature;BMP_pressure;BME280_temperature;BME280_humidity;BME280_pressure;Samples;Min_cycle;Max_cycle;Signal;HPM_P1;HPM_P2
2023/11/25 00:00:06;;;;;;;5.22;0.73;;;-0.10;99.90;;;;;;4977942;28;20138;-58
2023/11/25 00:02:33;;;;;;;1.65;0.50;;;-0.10;99.90;;;;;;4977605;28;20042;-58
2023/11/25 00:04:58;;;;;;;1.00;0.52;;;-0.10;99.90;;;;;;4975989;28;20049;-59
2023/11/25 00:07:25;;;;;;;0.68;0.50;;;-0.20;99.90;;;;;;4977769;28;20736;-58
2023/11/25 00:09:51;;;;;;;1.08;0.55;;;-0.20;99.90;;;;;;4977441;28;20081;-58
2023/11/25 00:12:16;;;;;;;3.05;0.50;;;-0.30;99.90;;;;;;4978037;28;20026;-58
2023/11/25 00:14:42;;;;;;;0.90;0.57;;;-0.20;99.90;;;;;;4977964;28;20034;-58
2023/11/25 00:17:08;;;;;;;0.75;0.40;;;-0.20;99.90;;;;;;4974234;28;20026;-58
2023/11/25 00:19:34;;;;;;;3.65;0.70;;;-0.30;99.90;;;;;;4975628;28;20022;-58
2023/11/25 00:22:00;;;;;;;1.10;0.60;;;-0.30;99.90;;;;;;4976013;28;20026;-58
2023/11/25 00:24:26;;;;;;;2.15;0.60;;;-0.30;99.90;;;;;;4977576;28;20101;-58
2023/11/25 00:26:52;;;;;;;0.57;0.47;;;-0.30;99.90;;;;;;4977831;28;20402;-58
2023/11/25 00:29:18;;;;;;;1.67;0.73;;;-0.30;99.90;;;;;;4977984;28;20061;-58
2023/11/25 00:31:48;;;;;;;1.42;0.50;;;-0.30;99.90;;;;;;4977864;28;20030;-58
2023/11/25 00:34:14;;;;;;;2.40;0.70;;;-0.30;99.90;;;;;;4977319;28;20069;-58
2023/11/25 00:36:40;;;;;;;2.58;0.45;;;-0.30;99.90;;;;;;4977202;28;20039;-58
2023/11/25 00:39:06;;;;;;;2.15;0.85;;;-0.30;99.90;;;;;;4980026;28;20105;-58
2023/11/25 00:41:33;;;;;;;2.42;0.50;;;-0.30;99.90;;;;;;4980355;28;20564;-58
2023/11/25 00:43:59;;;;;;;0.82;0.63;;;-0.30;99.90;;;;;;4981270;28;20030;-57
2023/11/25 00:46:24;;;;;;;0.82;0.43;;;-0.30;99.90;;;;;;4981120;28;20030;-58
2023/11/25 00:48:52;;;;;;;1.92;0.60;;;-0.30;99.90;;;;;;4981470;28;20106;-59
2023/11/25 00:51:18;;;;;;;1.50;0.82;;;-0.30;99.90;;;;;;4981236;28;20030;-57
2023/11/25 00:53:43;;;;;;;4.57;0.80;;;-0.20;99.90;;;;;;4982473;28;20022;-58
2023/11/25 00:56:10;;;;;;;6.13;1.38;;;-0.10;99.90;;;;;;4975900;28;20048;-58
2023/11/25 00:58:36;;;;;;;2.55;1.45;;;-0.10;99.90;;;;;;4980621;28;20449;-58
2023/11/25 01:01:01;;;;;;;2.40;0.52;;;-0.10;99.90;;;;;;4980867;28;20042;-58
2023/11/25 01:03:27;;;;;;;3.38;0.80;;;0.00;99.90;;;;;;4981246;28;20402;-58
2023/11/25 01:05:53;;;;;;;2.03;1.00;;;0.00;99.90;;;;;;4982055;28;20035;-58
2023/11/25 01:08:20;;;;;;;5.20;0.90;;;0.00;99.90;;;;;;4977301;28;20461;-58
2023/11/25 01:10:45;;;;;;;1.67;0.70;;;0.00;99.90;;;;;;4975515;28;20690;-56
2023/11/25 01:13:11;;;;;;;2.92;1.10;;;0.00;99.90;;;;;;4975775;28;20102;-58
2023/11/25 01:15:36;;;;;;;3.15;0.52;;;0.00;99.90;;;;;;4980958;28;20053;-58
2023/11/25 01:18:02;;;;;;;3.90;0.75;;;0.00;99.90;;;;;;4980685;28;20113;-58
2023/11/25 01:20:27;;;;;;;4.82;1.02;;;0.00;99.90;;;;;;4982702;28;20022;-58
2023/11/25 01:22:53;;;;;;;3.60;0.80;;;0.00;99.90;;;;;;4982084;28;20044;-58
2023/11/25 01:25:19;;;;;;;5.82;1.35;;;0.00;99.90;;;;;;4978135;28;20034;-58
2023/11/25 01:27:44;;;;;;;1.25;0.82;;;0.00;99.90;;;;;;4981667;28;20080;-58
2023/11/25 01:30:10;;;;;;;2.25;0.60;;;0.10;99.90;;;;;;4982039;28;20085;-58
2023/11/25 01:32:36;;;;;;;2.03;0.63;;;0.20;99.90;;;;;;4983191;28;20027;-58
2023/11/25 01:35:02;;;;;;;4.53;0.70;;;0.20;99.90;;;;;;4982983;28;20053;-58
2023/11/25 01:37:29;;;;;;;2.10;0.80;;;0.30;99.90;;;;;;4980760;28;20030;-59
2023/11/25 01:39:55;;;;;;;1.60;0.70;;;0.40;99.90;;;;;;4983287;28;20026;-58
2023/11/25 01:42:20;;;;;;;1.30;0.70;;;0.40;99.90;;;;;;4982773;28;20165;-58
2023/11/25 01:44:46;;;;;;;1.90;0.60;;;0.50;99.90;;;;;;4981766;28;20050;-58
2023/11/25 01:47:12;;;;;;;5.47;1.05;;;0.60;99.90;;;;;;4981463;28;20113;-58
2023/11/25 01:49:39;;;;;;;0.80;0.68;;;0.70;99.90;;;;;;4982684;28;20117;-58
2023/11/25 01:52:07;;;;;;;1.40;0.75;;;0.80;99.90;;;;;;4982552;28;20019;-56
2023/11/25 01:54:33;;;;;;;3.47;0.75;;;0.80;99.90;;;;;;4982605;28;20030;-57
2023/11/25 01:57:01;;;;;;;1.48;0.70;;;0.90;99.90;;;;;;4984205;28;20405;-58
2023/11/25 01:59:27;;;;;;;1.95;0.68;;;0.90;99.90;;;;;;4982473;28;20026;-58
2023/11/25 02:01:54;;;;;;;3.08;0.60;;;1.00;99.90;;;;;;4982451;28;20030;-57
2023/11/25 02:04:20;;;;;;;2.25;0.70;;;1.00;99.90;;;;;;4982145;28;20022;-58
2023/11/25 02:06:45;;;;;;;1.42;0.47;;;1.00;99.90;;;;;;4982172;28;20031;-57
2023/11/25 02:09:11;;;;;;;2.72;0.75;;;1.10;99.90;;;;;;4982040;28;20018;-58
2023/11/25 02:11:56;;;;;;;2.45;0.70;;;1.10;99.90;;;;;;4984374;28;20061;-57
2023/11/25 02:14:22;;;;;;;3.47;0.90;;;1.10;99.90;;;;;;4980515;28;20029;-59
2023/11/25 02:16:48;;;;;;;1.38;0.60;;;1.20;99.90;;;;;;4982225;28;20030;-60
2023/11/25 02:19:14;;;;;;;2.15;0.55;;;1.20;99.90;;;;;;4980757;28;20030;-60
2023/11/25 02:21:40;;;;;;;3.17;0.80;;;1.20;99.90;;;;;;4983769;28;20023;-61
2023/11/25 02:24:07;;;;;;;0.93;0.63;;;1.20;99.90;;;;;;4982018;28;20026;-60
2023/11/25 02:26:34;;;;;;;1.13;0.60;;;1.20;99.90;;;;;;4981665;28;20056;-60
2023/11/25 02:28:59;;;;;;;2.70;0.68;;;1.20;99.90;;;;;;4981845;28;20026;-60
2023/11/25 02:31:25;;;;;;;2.08;0.77;;;1.20;99.90;;;;;;4981765;28;20033;-60
2023/11/25 02:33:50;;;;;;;1.83;0.60;;;1.30;99.90;;;;;;4981738;28;20030;-59
2023/11/25 02:36:16;;;;;;;1.65;0.77;;;1.20;99.90;;;;;;4983328;28;20441;-59
2023/11/25 02:38:42;;;;;;;3.28;0.77;;;1.20;99.90;;;;;;4978983;28;20030;-60
2023/11/25 02:41:09;;;;;;;1.90;0.68;;;1.20;99.90;;;;;;4981609;28;20034;-60
2023/11/25 02:43:35;;;;;;;4.20;0.80;;;1.20;99.90;;;;;;4981366;28;20096;-61
2023/11/25 02:46:00;;;;;;;4.32;0.80;;;1.30;99.90;;;;;;4981450;28;20062;-60
2023/11/25 02:48:25;;;;;;;1.80;0.88;;;1.30;99.90;;;;;;4981547;28;20441;-60
2023/11/25 02:50:52;;;;;;;0.80;0.47;;;1.30;99.90;;;;;;4980274;28;20030;-60
2023/11/25 02:53:18;;;;;;;1.10;0.68;;;1.30;99.90;;;;;;4983369;28;20088;-60
2023/11/25 02:55:44;;;;;;;0.55;0.55;;;1.40;99.90;;;;;;4981519;28;20041;-60
2023/11/25 02:58:12;;;;;;;1.75;0.80;;;1.40;99.90;;;;;;4981194;28;20030;-60
2023/11/25 03:00:40;;;;;;;3.05;0.68;;;1.40;99.90;;;;;;4981071;28;20088;-60
2023/11/25 03:03:18;;;;;;;2.65;0.95;;;1.50;99.90;;;;;;4977524;28;20088;-60
2023/11/25 03:05:52;;;;;;;2.60;0.75;;;1.50;99.90;;;;;;4981218;28;20682;-61
2023/11/25 03:08:18;;;;;;;2.83;0.50;;;1.50;99.90;;;;;;4978959;28;20069;-61
2023/11/25 03:10:46;;;;;;;3.15;0.70;;;1.50;99.90;;;;;;4980994;28;20493;-60
2023/11/25 03:13:12;;;;;;;2.55;0.52;;;1.50;99.90;;;;;;4981649;28;20015;-60
2023/11/25 03:15:38;;;;;;;1.70;0.80;;;1.50;99.90;;;;;;4981015;28;20541;-60
2023/11/25 03:18:05;;;;;;;1.77;0.40;;;1.50;99.90;;;;;;4981060;28;20037;-59
2023/11/25 03:20:34;;;;;;;1.50;0.50;;;1.50;99.90;;;;;;4980963;28;20026;-60
2023/11/25 03:23:01;;;;;;;1.05;0.50;;;1.50;99.90;;;;;;4980992;28;20026;-60
2023/11/25 03:25:29;;;;;;;1.75;0.38;;;1.50;99.90;;;;;;4982563;28;20057;-61
2023/11/25 03:27:55;;;;;;;3.65;0.77;;;1.60;99.90;;;;;;4977882;28;20035;-60
2023/11/25 03:30:22;;;;;;;1.15;0.45;;;1.50;99.90;;;;;;4980746;28;20018;-60
2023/11/25 03:32:48;;;;;;;2.88;0.82;;;1.50;99.90;;;;;;4980742;28;20500;-60
2023/11/25 03:35:13;;;;;;;0.50;0.35;;;1.50;99.90;;;;;;4980873;28;20030;-61
2023/11/25 03:37:40;;;;;;;7.47;0.70;;;1.50;99.90;;;;;;4974824;28;20030;-54
2023/11/25 03:40:07;;;;;;;0.73;0.60;;;1.50;99.90;;;;;;4980514;28;20413;-52
2023/11/25 03:42:34;;;;;;;2.80;0.73;;;1.50;99.90;;;;;;4979127;28;20025;-52
2023/11/25 03:45:01;;;;;;;2.45;0.60;;;1.50;99.90;;;;;;4980504;28;20074;-52
2023/11/25 03:47:28;;;;;;;3.60;0.65;;;1.60;99.90;;;;;;4982239;28;20034;-70
2023/11/25 03:49:54;;;;;;;3.72;0.80;;;1.60;99.90;;;;;;4980473;28;20073;-70
2023/11/25 03:52:20;;;;;;;0.93;0.52;;;1.60;99.90;;;;;;4980683;28;20026;-70
2023/11/25 03:54:46;;;;;;;2.92;0.63;;;1.60;99.90;;;;;;4980390;28;20014;-70
2023/11/25 03:57:11;;;;;;;1.13;0.63;;;1.60;99.90;;;;;;4979201;28;20022;-70
2023/11/25 03:59:37;;;;;;;4.57;0.73;;;1.60;99.90;;;;;;4980367;28;20056;-70
2023/11/25 04:02:02;;;;;;;1.33;0.57;;;1.60;99.90;;;;;;4980764;28;20185;-69
2023/11/25 04:04:28;;;;;;;5.40;1.05;;;1.60;99.90;;;;;;4982055;28;20026;-71
2023/11/25 04:06:53;;;;;;;1.85;1.02;;;1.60;99.90;;;;;;4980194;28;20074;-70
2023/11/25 04:09:19;;;;;;;1.85;0.70;;;1.60;99.90;;;;;;4980319;28;20026;-70
2023/11/25 04:11:44;;;;;;;1.13;0.60;;;1.50;99.90;;;;;;4979723;28;20160;-70
2023/11/25 04:14:10;;;;;;;2.08;0.82;;;1.50;99.90;;;;;;4980182;28;20097;-69
2023/11/25 04:16:35;;;;;;;1.42;0.75;;;1.50;99.90;;;;;;4980539;28;20080;-70
2023/11/25 04:19:01;;;;;;;4.57;0.80;;;1.50;99.90;;;;;;4981846;28;20486;-70
2023/11/25 04:21:26;;;;;;;3.72;0.80;;;1.60;99.90;;;;;;4980395;28;20034;-70
2023/11/25 04:23:54;;;;;;;3.15;0.90;;;1.50;99.90;;;;;;4978664;28;20033;-70
2023/11/25 04:26:20;;;;;;;2.63;0.70;;;1.60;99.90;;;;;;4980088;28;20084;-70
2023/11/25 04:28:46;;;;;;;1.50;0.77;;;1.50;99.90;;;;;;4980110;28;20113;-70
2023/11/25 04:31:12;;;;;;;3.00;0.73;;;1.60;99.90;;;;;;4975882;28;20037;-70
2023/11/25 04:33:38;;;;;;;2.53;0.73;;;1.60;99.90;;;;;;4980739;28;20026;-70
2023/11/25 04:36:04;;;;;;;4.47;1.05;;;1.60;99.90;;;;;;4976382;28;20053;-71
2023/11/25 04:38:29;;;;;;;2.28;0.70;;;1.70;99.90;;;;;;4974382;28;20133;-71
2023/11/25 04:40:55;;;;;;;2.28;0.73;;;1.70;99.90;;;;;;4979846;28;20184;-70
2023/11/25 04:43:20;;;;;;;3.90;1.00;;;1.70;99.90;;;;;;4979990;28;20041;-70
2023/11/25 04:45:46;;;;;;;1.15;0.50;;;1.70;99.90;;;;;;4980034;28;20065;-70
2023/11/25 04:48:11;;;;;;;3.97;0.90;;;1.70;99.90;;;;;;4978776;28;20033;-69
2023/11/25 04:50:37;;;;;;;3.88;0.80;;;1.70;99.90;;;;;;4978184;28;20490;-70
2023/11/25 04:53:02;;;;;;;4.03;0.80;;;1.70;99.90;;;;;;4980491;28;20042;-70
2023/11/25 04:55:28;;;;;;;2.00;0.90;;;1.70;99.90;;;;;;4980290;28;20045;-71
2023/11/25 04:57:54;;;;;;;3.85;0.70;;;1.70;99.90;;;;;;4980069;28;20054;-72
2023/11/25 05:00:21;;;;;;;1.13;0.65;;;1.70;99.90;;;;;;4979888;28;20029;-71
2023/11/25 05:02:47;;;;;;;2.47;0.75;;;1.80;99.90;;;;;;4980078;28;20426;-71
2023/11/25 05:05:13;;;;;;;2.00;0.88;;;1.80;99.90;;;;;;4982019;28;20042;-70
2023/11/25 05:07:39;;;;;;;6.80;1.10;;;1.70;99.90;;;;;;4978001;28;20027;-70
2023/11/25 05:10:06;;;;;;;2.45;0.70;;;1.70;99.90;;;;;;4980030;28;20120;-70
2023/11/25 05:12:32;;;;;;;1.25;0.70;;;1.70;99.90;;;;;;4978902;28;20409;-71
2023/11/25 05:14:57;;;;;;;3.35;1.10;;;1.70;99.90;;;;;;4980024;28;20026;-70
2023/11/25 05:17:23;;;;;;;2.13;0.90;;;1.80;99.90;;;;;;4979886;28;20077;-70
2023/11/25 05:19:49;;;;;;;3.45;0.88;;;1.80;99.90;;;;;;4979855;28;20553;-70
2023/11/25 05:22:14;;;;;;;1.48;0.75;;;1.80;99.90;;;;;;4983851;28;20019;-70
2023/11/25 05:24:40;;;;;;;2.35;0.77;;;1.70;99.90;;;;;;4983342;28;20018;-70
2023/11/25 05:27:05;;;;;;;2.90;0.90;;;1.70;99.90;;;;;;4981851;28;20099;-72
2023/11/25 05:29:31;;;;;;;2.08;0.55;;;1.70;99.90;;;;;;4983316;28;20076;-70
2023/11/25 05:31:57;;;;;;;6.07;1.63;;;1.70;99.90;;;;;;4979154;28;20062;-70
2023/11/25 05:34:26;;;;;;;3.00;1.20;;;1.70;99.90;;;;;;4983077;28;20502;-70
2023/11/25 05:36:52;;;;;;;10.02;1.55;;;1.80;99.90;;;;;;4977058;28;20032;-70
2023/11/25 05:39:20;;;;;;;4.03;1.42;;;1.80;99.90;;;;;;4983850;28;20026;-70
2023/11/25 05:41:46;;;;;;;4.10;1.13;;;1.80;99.90;;;;;;4983036;28;20022;-70
2023/11/25 05:44:12;;;;;;;5.30;1.40;;;1.80;99.90;;;;;;4982705;28;20064;-70
2023/11/25 05:46:38;;;;;;;5.75;1.38;;;1.80;99.90;;;;;;4982695;28;20105;-70
2023/11/25 05:49:12;;;;;;;5.25;1.70;;;1.80;99.90;;;;;;4982728;28;20050;-70
2023/11/25 05:51:41;;;;;;;7.05;1.67;;;1.80;99.90;;;;;;4981442;28;20034;-70
2023/11/25 05:54:07;;;;;;;6.88;2.40;;;1.90;99.90;;;;;;4981167;28;20022;-70
2023/11/25 05:56:32;;;;;;;5.88;1.60;;;1.90;99.90;;;;;;4982528;28;20034;-71
2023/11/25 05:58:58;;;;;;;6.40;1.80;;;1.90;99.90;;;;;;4982464;28;20126;-71
2023/11/25 06:01:24;;;;;;;5.15;1.88;;;1.90;99.90;;;;;;4977008;28;20134;-71
2023/11/25 06:03:52;;;;;;;6.38;2.30;;;1.90;99.90;;;;;;4982738;28;20105;-71
2023/11/25 06:06:20;;;;;;;11.40;1.85;;;2.00;99.90;;;;;;4980198;28;20113;-71
2023/11/25 06:08:47;;;;;;;7.53;1.83;;;2.00;99.90;;;;;;4982232;28;20022;-71
2023/11/25 06:11:23;;;;;;;6.40;2.70;;;2.00;99.90;;;;;;4981086;28;20486;-70
2023/11/25 06:13:49;;;;;;;8.20;2.28;;;2.00;99.90;;;;;;4980213;28;20027;-71
2023/11/25 06:16:15;;;;;;;5.35;1.83;;;2.00;99.90;;;;;;4982192;28;20081;-70
2023/11/25 06:18:41;;;;;;;6.32;1.88;;;2.00;99.90;;;;;;4982243;28;20027;-71
2023/11/25 06:21:07;;;;;;;4.82;1.63;;;2.00;99.90;;;;;;4976804;28;20033;-70
2023/11/25 06:23:32;;;;;;;4.40;1.80;;;2.00;99.90;;;;;;4981854;28;20030;-71
2023/11/25 06:25:59;;;;;;;3.17;1.52;;;2.10;99.90;;;;;;4981838;28;20033;-69
2023/11/25 06:28:25;;;;;;;9.98;2.03;;;2.10;99.90;;;;;;4983630;28;20031;-71
2023/11/25 06:31:00;;;;;;;7.18;2.22;;;2.00;99.90;;;;;;4982279;28;20504;-71
2023/11/25 06:33:26;;;;;;;3.65;1.35;;;2.10;99.90;;;;;;4979306;28;20053;-70
2023/11/25 06:35:54;;;;;;;7.10;1.55;;;2.10;99.90;;;;;;4981747;28;20643;-70
2023/11/25 06:38:20;;;;;;;4.70;1.70;;;2.10;99.90;;;;;;4976020;28;20022;-71
2023/11/25 06:40:47;;;;;;;6.30;1.35;;;2.10;99.90;;;;;;4981731;28;20382;-71
2023/11/25 06:43:13;;;;;;;5.68;1.70;;;2.10;99.90;;;;;;4981515;28;20511;-70
2023/11/25 06:45:40;;;;;;;6.95;2.10;;;2.10;99.90;;;;;;4981435;28;20050;-70
2023/11/25 06:48:06;;;;;;;6.75;1.73;;;2.10;99.90;;;;;;4981459;28;20076;-71
2023/11/25 06:50:33;;;;;;;3.55;1.55;;;2.00;99.90;;;;;;4981497;28;20053;-72
2023/11/25 06:52:59;;;;;;;6.85;2.08;;;2.00;99.90;;;;;;4983143;28;20019;-71
2023/11/25 06:55:24;;;;;;;7.15;1.70;;;2.00;99.90;;;;;;4981292;28;20038;-71
2023/11/25 06:57:49;;;;;;;8.60;1.85;;;2.00;99.90;;;;;;4981478;28;20106;-71
2023/11/25 07:00:15;;;;;;;4.38;1.27;;;2.00;99.90;;;;;;4981273;28;20084;-70
2023/11/25 07:02:41;;;;;;;4.75;1.88;;;2.00;99.90;;;;;;4981217;28;20038;-72
2023/11/25 07:05:07;;;;;;;8.15;1.67;;;1.90;99.90;;;;;;4972054;28;20081;-71
2023/11/25 07:07:33;;;;;;;6.20;1.30;;;1.80;99.90;;;;;;4979065;28;20707;-71
2023/11/25 07:09:59;;;;;;;2.47;1.52;;;1.80;99.90;;;;;;4981672;28;20041;-73
2023/11/25 07:12:24;;;;;;;2.55;1.00;;;1.80;99.90;;;;;;4980044;28;20038;-71
2023/11/25 07:14:50;;;;;;;9.52;1.70;;;1.70;99.90;;;;;;4980195;28;20030;-71
2023/11/25 07:17:15;;;;;;;8.13;1.33;;;1.60;99.90;;;;;;4979844;28;20283;-70
2023/11/25 07:19:42;;;;;;;7.47;1.38;;;1.50;99.90;;;;;;4979760;28;20030;-72
2023/11/25 07:22:08;;;;;;;3.67;0.93;;;1.50;99.90;;;;;;4980109;28;20064;-71
2023/11/25 07:24:35;;;;;;;6.05;1.45;;;1.40;99.90;;;;;;4981550;28;20039;-73
2023/11/25 07:27:04;;;;;;;8.18;1.40;;;1.40;99.90;;;;;;4978742;28;20410;-72
2023/11/25 07:29:31;;;;;;;2.25;1.00;;;1.30;99.90;;;;;;4979428;28;20030;-72
2023/11/25 07:31:59;;;;;;;5.72;1.63;;;1.30;99.90;;;;;;4979917;28;20052;-72
2023/11/25 07:34:24;;;;;;;7.05;2.10;;;1.30;99.90;;;;;;4976578;28;20030;-72
2023/11/25 07:36:49;;;;;;;5.97;1.10;;;1.30;99.90;;;;;;4976587;28;20048;-71
2023/11/25 07:39:19;;;;;;;2.53;1.10;;;1.30;99.90;;;;;;4979887;28;20034;-72
2023/11/25 07:41:45;;;;;;;1.95;1.00;;;1.30;99.90;;;;;;4979442;28;20061;-72
2023/11/25 07:44:11;;;;;;;7.93;1.40;;;1.20;99.90;;;;;;4977933;28;20026;-71
2023/11/25 07:46:37;;;;;;;7.10;1.40;;;1.20;99.90;;;;;;4978665;28;20026;-58
2023/11/25 07:49:02;;;;;;;4.60;1.75;;;1.20;99.90;;;;;;4979280;28;20076;-59
2023/11/25 07:51:28;;;;;;;1.95;0.90;;;1.20;99.90;;;;;;4979164;28;20128;-58
2023/11/25 07:53:53;;;;;;;7.85;1.40;;;1.20;99.90;;;;;;4975189;28;20022;-58
2023/11/25 07:56:19;;;;;;;7.20;1.67;;;1.20;99.90;;;;;;4979092;28;20541;-58
2023/11/25 07:58:46;;;;;;;4.40;1.00;;;1.30;99.90;;;;;;4979255;28;20037;-58
2023/11/25 08:01:12;;;;;;;10.43;1.17;;;1.20;99.90;;;;;;4981174;28;20429;-58
2023/11/25 08:03:38;;;;;;;5.90;1.40;;;1.20;99.90;;;;;;4978690;28;20032;-59
2023/11/25 08:06:05;;;;;;;5.63;1.13;;;1.20;99.90;;;;;;4978837;28;20038;-58
2023/11/25 08:08:30;;;;;;;5.80;1.23;;;1.20;99.90;;;;;;4977429;28;20410;-58
2023/11/25 08:10:57;;;;;;;6.28;1.40;;;1.20;99.90;;;;;;4978689;28;20034;-59
2023/11/25 08:13:23;;;;;;;3.90;1.17;;;1.20;99.90;;;;;;4979121;28;20022;-58
2023/11/25 08:15:49;;;;;;;4.43;1.25;;;1.30;99.90;;;;;;4979036;28;20028;-58
2023/11/25 08:18:15;;;;;;;5.30;1.45;;;1.40;99.90;;;;;;4980853;28;20057;-58
2023/11/25 08:20:41;;;;;;;6.13;2.55;;;1.50;99.90;;;;;;4979099;28;20224;-58
2023/11/25 08:23:07;;;;;;;2.10;0.93;;;1.60;99.90;;;;;;4978846;28;21067;-59
2023/11/25 08:25:33;;;;;;;6.40;1.55;;;1.70;99.90;;;;;;4977416;28;20117;-59
2023/11/25 08:27:58;;;;;;;9.30;2.08;;;1.90;99.90;;;;;;4979018;28;20129;-59
2023/11/25 08:30:24;;;;;;;4.78;1.60;;;2.10;99.90;;;;;;4979088;28;20089;-59
2023/11/25 08:32:50;;;;;;;5.65;1.63;;;2.30;99.90;;;;;;4976735;28;20019;-59
2023/11/25 08:35:15;;;;;;;6.90;1.92;;;2.50;99.90;;;;;;4978955;28;20362;-59
2023/11/25 08:37:41;;;;;;;4.32;1.20;;;2.70;99.90;;;;;;4972798;28;20066;-59
2023/11/25 08:40:16;;;;;;;3.03;1.35;;;2.80;99.90;;;;;;4974509;28;20031;-59
2023/11/25 08:42:45;;;;;;;4.88;1.65;;;3.00;99.90;;;;;;4977933;28;20058;-59
2023/11/25 08:45:11;;;;;;;4.72;1.40;;;3.20;99.90;;;;;;4976342;28;20085;-58
2023/11/25 08:47:38;;;;;;;7.53;1.60;;;3.40;99.90;;;;;;4978858;28;20246;-59
2023/11/25 08:50:07;;;;;;;4.47;1.63;;;3.50;99.90;;;;;;4977175;28;20030;-59
2023/11/25 08:52:35;;;;;;;5.45;1.42;;;3.60;99.90;;;;;;4978738;28;20029;-59
2023/11/25 08:55:00;;;;;;;4.55;1.50;;;3.70;99.90;;;;;;4978614;28;20490;-59
2023/11/25 08:57:26;;;;;;;3.22;1.55;;;3.80;99.90;;;;;;4982350;28;20177;-59
2023/11/25 08:59:52;;;;;;;6.85;1.25;;;3.80;99.90;;;;;;4982296;28;20054;-60
2023/11/25 09:02:22;;;;;;;2.75;1.10;;;3.80;99.90;;;;;;4982064;28;20039;-59
2023/11/25 09:04:48;;;;;;;3.28;1.40;;;3.80;99.90;;;;;;4982443;28;20049;-59
2023/11/25 09:07:14;;;;;;;10.27;1.50;;;3.90;99.90;;;;;;4982229;28;20399;-60
2023/11/25 09:09:40;;;;;;;3.60;1.67;;;4.00;99.90;;;;;;4982100;28;20026;-59
2023/11/25 09:12:08;;;;;;;4.78;1.50;;;4.10;99.90;;;;;;4982110;28;20072;-60
2023/11/25 09:14:34;;;;;;;4.32;1.10;;;4.10;99.90;;;;;;4982024;28;20026;-59
2023/11/25 09:16:59;;;;;;;7.18;1.83;;;4.30;99.90;;;;;;4982552;28;20045;-59
2023/11/25 09:19:26;;;;;;;3.00;1.55;;;4.50;99.90;;;;;;4981897;28;20425;-60
2023/11/25 09:21:52;;;;;;;3.67;1.27;;;4.70;99.90;;;;;;4981018;28;20486;-59
2023/11/25 09:24:19;;;;;;;5.50;1.30;;;5.00;99.90;;;;;;4981911;28;20046;-59
2023/11/25 09:26:46;;;;;;;6.55;1.90;;;5.10;99.90;;;;;;4981349;28;20073;-60
2023/11/25 09:29:11;;;;;;;4.00;1.40;;;5.10;99.90;;;;;;4979115;28;20029;-59
2023/11/25 09:31:37;;;;;;;4.97;1.38;;;5.10;99.90;;;;;;4983632;28;20026;-60
2023/11/25 09:34:03;;;;;;;4.57;1.83;;;5.00;99.90;;;;;;4983139;28;20033;-60
2023/11/25 09:36:29;;;;;;;3.75;1.90;;;4.90;99.90;;;;;;4972433;28;20035;-59
2023/11/25 09:38:55;;;;;;;6.10;2.47;;;4.80;99.90;;;;;;4981370;28;20066;-59
2023/11/25 09:41:21;;;;;;;10.15;3.60;;;4.80;99.90;;;;;;4981475;28;20502;-60
2023/11/25 09:43:47;;;;;;;9.38;4.15;;;4.70;99.90;;;;;;4978477;28;20387;-59
2023/11/25 09:46:14;;;;;;;6.78;3.28;;;4.70;99.90;;;;;;4982605;28;20057;-60
2023/11/25 09:48:40;;;;;;;7.93;3.40;;;4.60;99.90;;;;;;4981585;28;20032;-59
2023/11/25 09:51:13;;;;;;;8.30;2.45;;;4.60;99.90;;;;;;4981782;28;20018;-59
2023/11/25 09:53:42;;;;;;;6.85;2.90;;;4.60;99.90;;;;;;4979227;28;20048;-60
2023/11/25 09:56:11;;;;;;;4.88;2.33;;;4.60;99.90;;;;;;4982701;28;20034;-60
2023/11/25 09:58:37;;;;;;;6.18;1.83;;;4.60;99.90;;;;;;4982452;28;20026;-62
2023/11/25 10:01:05;;;;;;;6.10;1.85;;;4.50;99.90;;;;;;4981248;28;20033;-59
2023/11/25 10:03:36;;;;;;;6.53;1.67;;;4.50;99.90;;;;;;4981047;28;20109;-60
2023/11/25 10:06:02;;;;;;;6.43;1.63;;;4.40;99.90;;;;;;4981024;28;20046;-60
2023/11/25 10:08:28;;;;;;;4.13;1.30;;;4.40;99.90;;;;;;4980038;28;20081;-60
2023/11/25 10:11:07;;;;;;;4.10;1.40;;;4.40;99.90;;;;;;4981069;28;20018;-59
2023/11/25 10:13:38;;;;;;;5.93;1.77;;;4.40;99.90;;;;;;4980930;28;20045;-60
2023/11/25 10:16:05;;;;;;;5.15;1.38;;;4.50;99.90;;;;;;4983857;28;20026;-60
2023/11/25 10:18:31;;;;;;;4.28;1.33;;;4.60;99.90;;;;;;4979486;28;20034;-60
2023/11/25 10:20:58;;;;;;;6.25;1.30;;;4.80;99.90;;;;;;4980815;28;20018;-60
2023/11/25 10:23:24;;;;;;;4.45;1.67;;;4.90;99.90;;;;;;4980841;28;20214;-59
2023/11/25 10:25:54;;;;;;;3.70;1.60;;;5.00;99.90;;;;;;4982457;28;20102;-60
2023/11/25 10:28:25;;;;;;;5.38;1.65;;;5.00;99.90;;;;;;4981511;28;20031;-60
2023/11/25 10:30:59;;;;;;;4.75;1.90;;;5.00;99.90;;;;;;4979240;28;20510;-60
2023/11/25 10:33:28;;;;;;;5.95;1.70;;;5.10;99.90;;;;;;4978978;28;20092;-59
2023/11/25 10:35:54;;;;;;;7.20;2.17;;;5.10;99.90;;;;;;4980373;28;20057;-58
2023/11/25 10:38:27;;;;;;;6.50;1.90;;;5.10;99.90;;;;;;4977725;28;20050;-59
2023/11/25 10:41:03;;;;;;;5.78;1.85;;;5.10;99.30;;;;;;4976286;28;20030;-60
2023/11/25 10:43:30;;;;;;;;;;;5.10;99.50;;;;;;4980709;28;20026;-59
2023/11/25 10:46:07;;;;;;;3.08;1.30;;;5.10;98.40;;;;;;4980572;28;19918;-59
2023/11/25 10:48:33;;;;;;;6.82;1.75;;;5.00;98.80;;;;;;4978633;28;20026;-58
2023/11/25 10:50:59;;;;;;;6.55;1.55;;;5.00;98.10;;;;;;4981004;28;20478;-59
2023/11/25 10:53:31;;;;;;;5.35;1.63;;;4.90;98.40;;;;;;4977640;28;20033;-59
2023/11/25 10:56:00;;;;;;;6.07;1.63;;;4.90;98.60;;;;;;4980086;28;20101;-59
2023/11/25 10:58:29;;;;;;;11.93;1.77;;;4.90;99.10;;;;;;4980067;28;20026;-59
2023/11/25 11:00:55;;;;;;;4.90;1.88;;;5.00;99.00;;;;;;4980517;28;20026;-59
2023/11/25 11:03:25;;;;;;;6.55;1.90;;;4.90;98.70;;;;;;4979934;28;20061;-59
2023/11/25 11:06:01;;;;;;;5.97;1.50;;;4.90;99.20;;;;;;4980316;28;20034;-59
2023/11/25 11:08:37;;;;;;;6.82;1.70;;;4.90;99.00;;;;;;4973775;28;20031;-60
2023/11/25 11:11:31;;;;;;;3.40;1.52;;;4.90;99.10;;;;;;4979235;28;20168;-59
2023/11/25 11:14:10;;;;;;;3.97;1.70;;;4.90;98.90;;;;;;4975243;28;20517;-59
2023/11/25 11:16:48;;;;;;;7.18;2.30;;;4.90;98.80;;;;;;4973679;28;20030;-59
2023/11/25 11:19:17;;;;;;;2.65;1.33;;;4.80;98.10;;;;;;4974324;28;20042;-59
2023/11/25 11:21:48;;;;;;;7.40;1.65;;;4.80;97.90;;;;;;4974572;28;20113;-59
2023/11/25 11:24:19;;;;;;;5.15;1.65;;;4.80;98.30;;;;;;4976345;28;20022;-59
2023/11/25 11:27:18;;;;;;;6.25;2.08;;;4.80;98.50;;;;;;4978016;28;20031;-59
2023/11/25 11:29:52;;;;;;;5.35;1.33;;;4.70;98.40;;;;;;4977280;28;20053;-59
2023/11/25 11:32:19;;;;;;;6.72;1.70;;;4.70;98.60;;;;;;4980942;28;20030;-59
2023/11/25 11:34:46;;;;;;;3.78;1.83;;;4.60;98.50;;;;;;4978564;28;20049;-59
2023/11/25 11:37:12;;;;;;;6.68;1.73;;;4.60;98.50;;;;;;4978041;28;20044;-59
2023/11/25 11:39:50;;;;;;;6.43;1.65;;;4.60;98.90;;;;;;4977972;28;20073;-60
2023/11/25 11:42:34;;;;;;;3.58;1.33;;;4.60;99.00;;;;;;4977024;28;20042;-59
2023/11/25 11:45:19;;;;;;;3.25;1.50;;;4.50;99.20;;;;;;4972112;28;20122;-60
2023/11/25 11:47:49;;;;;;;4.47;1.70;;;4.50;99.30;;;;;;4976214;28;20048;-59
2023/11/25 11:50:17;;;;;;;7.57;1.60;;;4.50;99.30;;;;;;4986702;28;20046;-59
2023/11/25 11:52:59;;;;;;;6.28;1.80;;;4.50;99.00;;;;;;4976874;28;20026;-59
2023/11/25 11:55:38;;;;;;;4.15;1.58;;;4.50;99.50;;;;;;4974465;28;20030;-59
2023/11/25 11:58:15;;;;;;;8.68;1.77;;;4.50;99.80;;;;;;4975050;28;20030;-59
2023/11/25 12:01:02;;;;;;;9.10;2.20;;;4.50;99.90;;;;;;4976777;28;20188;-58
2023/11/25 12:03:32;;;;;;;5.20;1.90;;;4.50;99.90;;;;;;4974231;28;20041;-58
2023/11/25 12:05:58;;;;;;;10.05;2.38;;;4.50;99.90;;;;;;4975234;28;20034;-58
2023/11/25 12:08:25;;;;;;;5.93;2.22;;;4.50;99.90;;;;;;4973085;28;20038;-57
2023/11/25 12:10:51;;;;;;;5.38;2.10;;;4.60;99.90;;;;;;4978379;28;20050;-58
2023/11/25 12:13:31;;;;;;;8.07;2.75;;;4.60;99.90;;;;;;4976419;28;20038;-58
2023/11/25 12:15:59;;;;;;;5.30;2.22;;;4.70;99.90;;;;;;4973741;28;20038;-58
2023/11/25 12:18:28;;;;;;;5.25;2.00;;;4.70;99.90;;;;;;4972455;28;20041;-58
2023/11/25 12:20:54;;;;;;;9.25;2.90;;;4.70;99.90;;;;;;4972645;28;20604;-58
2023/11/25 12:23:20;;;;;;;8.05;3.20;;;4.70;99.90;;;;;;4978288;28;20450;-58
2023/11/25 12:25:46;;;;;;;5.65;2.10;;;4.60;99.90;;;;;;4976472;28;20041;-58
2023/11/25 12:28:13;;;;;;;6.03;2.67;;;4.60;99.90;;;;;;4976823;28;20015;-57
2023/11/25 12:30:40;;;;;;;7.30;2.20;;;4.60;99.90;;;;;;4976530;28;20037;-58
2023/11/25 12:33:06;;;;;;;6.90;2.40;;;4.50;99.90;;;;;;4980064;28;20506;-58
2023/11/25 12:35:37;;;;;;;5.95;2.17;;;4.50;99.90;;;;;;4980349;28;20030;-58
2023/11/25 12:38:06;;;;;;;4.75;2.30;;;4.50;99.90;;;;;;4974593;28;20022;-58
2023/11/25 12:40:33;;;;;;;7.05;2.15;;;4.50;99.90;;;;;;4979930;28;20026;-58
2023/11/25 12:42:59;;;;;;;4.03;1.85;;;4.50;99.90;;;;;;4981947;28;20026;-58
2023/11/25 12:45:31;;;;;;;13.80;6.32;;;4.50;99.90;;;;;;4979831;28;20038;-58
2023/11/25 12:47:58;;;;;;;9.15;3.08;;;4.50;99.90;;;;;;4980440;28;20038;-59
2023/11/25 12:50:24;;;;;;;5.10;2.17;;;4.40;99.90;;;;;;4978898;28;20916;-58
2023/11/25 12:53:10;;;;;;;4.95;2.40;;;4.50;99.90;;;;;;4979736;28;20114;-58
2023/11/25 12:55:37;;;;;;;4.28;2.00;;;4.40;99.90;;;;;;4976872;28;20026;-58